createdAt,value
2023-04-19T00:01:05.957Z,17.20
2023-04-19T00:04:11.950Z,18.40
2023-04-19T00:05:35.219Z,15.70
2023-04-19T00:07:07.711Z,18.90
2023-04-19T00:08:40.158Z,18.20
2023-04-19T00:10:58.092Z,19.00
2023-04-19T00:12:23.318Z,14.70
2023-04-19T00:13:55.697Z,15.50
2023-04-19T00:15:20.891Z,15.60
2023-04-19T00:16:51.829Z,15.30
2023-04-19T00:18:17.011Z,17.50
2023-04-19T00:19:39.678Z,19.50
2023-04-19T00:21:12.320Z,16.80
2023-04-19T00:22:37.456Z,16.90
2023-04-19T00:24:09.970Z,18.20
2023-04-19T00:25:26.429Z,15.30
2023-04-19T00:26:49.629Z,18.00
2023-04-19T00:27:57.063Z,16.30
2023-04-19T00:29:30.863Z,16.50
2023-04-19T00:31:03.470Z,17.00
2023-04-19T00:32:36.028Z,20.10
2023-04-19T00:34:04.939Z,16.20
2023-04-19T00:35:37.374Z,16.00
2023-04-19T00:37:11.115Z,16.70
2023-04-19T00:38:23.700Z,15.20
2023-04-19T00:42:35.756Z,19.00
2023-04-19T00:44:09.706Z,16.00
2023-04-19T00:45:29.835Z,15.70
2023-04-19T00:46:43.617Z,18.60
2023-04-19T00:48:16.473Z,15.30
2023-04-19T00:49:48.915Z,16.20
2023-04-19T00:51:11.619Z,15.60
2023-04-19T00:52:34.925Z,17.50
2023-04-19T00:54:07.494Z,15.80
2023-04-19T01:08:15.021Z,16.30
2023-04-19T01:09:47.916Z,16.40
2023-04-19T01:11:13.738Z,16.50
2023-04-19T01:13:00.944Z,15.50
2023-04-19T01:15:24.708Z,18.00
2023-04-19T01:16:56.837Z,16.60
2023-04-19T01:18:05.385Z,14.90
2023-04-19T01:19:21.212Z,17.80
2023-04-19T01:20:42.923Z,23.10
2023-04-19T01:22:08.261Z,16.30
2023-04-19T01:23:26.389Z,17.70
2023-04-19T01:26:22.904Z,18.20
2023-04-19T01:28:00.603Z,17.20
2023-04-19T01:29:27.294Z,16.70
2023-04-19T01:35:16.378Z,16.60
2023-04-19T01:37:58.734Z,19.50
2023-04-19T01:39:14.192Z,16.10
2023-04-19T01:40:36.141Z,20.30
2023-04-19T01:41:34.136Z,18.20
2023-04-19T01:47:12.135Z,15.70
2023-04-19T01:48:46.110Z,19.80
2023-04-19T01:50:20.311Z,14.60
2023-04-19T01:51:54.398Z,19.00
2023-04-19T01:53:17.149Z,17.60
2023-04-19T02:03:35.838Z,17.30
2023-04-19T02:06:35.998Z,14.70
2023-04-19T02:08:10.982Z,16.90
2023-04-19T02:09:38.883Z,15.70
2023-04-19T02:11:14.353Z,15.80
2023-04-19T02:12:51.887Z,16.10
2023-04-19T02:14:33.640Z,13.00
2023-04-19T02:42:13.628Z,15.40
2023-04-19T02:43:28.510Z,17.10
2023-04-19T02:44:53.872Z,15.70
2023-04-19T02:46:08.429Z,14.90
2023-04-19T02:47:40.951Z,14.00
2023-04-19T02:49:13.762Z,14.00
2023-04-19T02:50:36.175Z,15.30
2023-04-19T02:59:32.432Z,18.10
2023-04-19T03:02:48.436Z,14.50
2023-04-19T03:03:20.524Z,14.80
2023-04-19T03:03:52.414Z,15.70
2023-04-19T03:04:24.547Z,16.40
2023-04-19T03:04:56.672Z,16.80
2023-04-19T03:05:28.537Z,16.00
2023-04-19T03:06:00.361Z,16.00
2023-04-19T03:06:32.232Z,14.80
2023-04-19T03:07:04.041Z,15.40
2023-04-19T03:07:36.096Z,17.50
2023-04-19T03:08:07.954Z,15.50
2023-04-19T03:08:40.165Z,16.30
2023-04-19T03:09:12.153Z,17.00
2023-04-19T03:09:44.410Z,16.20
2023-04-19T03:10:16.580Z,17.50
2023-04-19T03:10:48.299Z,16.50
2023-04-19T03:11:20.766Z,16.10
2023-04-19T03:11:52.939Z,17.40
2023-04-19T03:12:24.770Z,17.10
2023-04-19T03:12:56.571Z,16.70
2023-04-19T03:13:28.465Z,14.80
2023-04-19T03:14:00.403Z,15.50
2023-04-19T03:14:33.690Z,15.50
2023-04-19T03:15:06.751Z,15.20
2023-04-19T03:15:38.696Z,17.40
2023-04-19T03:16:10.734Z,16.20
2023-04-19T03:16:42.458Z,15.60
2023-04-19T03:17:14.374Z,14.90
2023-04-19T03:17:46.445Z,18.90
2023-04-19T03:18:18.378Z,19.10
2023-04-19T03:18:50.219Z,17.70
2023-04-19T03:19:22.067Z,16.80
2023-04-19T03:19:53.896Z,17.20
2023-04-19T03:20:26.360Z,18.90
2023-04-19T03:20:58.314Z,17.30
2023-04-19T03:21:30.469Z,16.50
2023-04-19T03:22:02.407Z,15.90
2023-04-19T03:22:34.252Z,15.40
2023-04-19T03:23:06.156Z,15.50
2023-04-19T03:23:38.053Z,16.60
2023-04-19T03:24:10.020Z,19.80
2023-04-19T03:24:42.146Z,17.30
2023-04-19T03:25:13.895Z,18.10
2023-04-19T03:25:45.756Z,18.50
2023-04-19T03:26:17.699Z,19.10
2023-04-19T03:26:49.540Z,17.30
2023-04-19T03:27:21.409Z,17.20
2023-04-19T03:27:53.832Z,18.50
2023-04-19T03:28:25.705Z,16.60
2023-04-19T03:28:57.848Z,15.60
2023-04-19T03:29:29.812Z,16.90
2023-04-19T03:30:01.871Z,18.10
2023-04-19T03:30:33.801Z,17.20
2023-04-19T03:31:05.900Z,17.60
2023-04-19T03:31:37.944Z,16.00
2023-04-19T03:32:09.869Z,16.80
2023-04-19T03:32:41.965Z,17.30
2023-04-19T03:33:13.961Z,18.80
2023-04-19T03:33:45.866Z,17.20
2023-04-19T03:34:17.963Z,16.20
2023-04-19T03:34:50.127Z,15.70
2023-04-19T03:35:25.762Z,15.90
2023-04-19T03:35:57.689Z,18.60
2023-04-19T03:36:30.627Z,18.80
2023-04-19T03:37:02.509Z,15.10
2023-04-19T03:37:34.468Z,17.50
2023-04-19T03:38:06.423Z,15.20
2023-04-19T03:38:38.507Z,17.50
2023-04-19T03:39:10.406Z,16.00
2023-04-19T03:39:42.255Z,17.00
2023-04-19T03:40:14.132Z,18.00
2023-04-19T03:40:46.778Z,16.20
2023-04-19T03:41:24.991Z,17.80
2023-04-19T03:41:56.704Z,15.40
2023-04-19T03:42:29.333Z,17.90
2023-04-19T03:43:01.322Z,15.80
2023-04-19T03:43:33.173Z,16.00
2023-04-19T03:44:05.236Z,15.50
2023-04-19T03:44:37.583Z,16.10
2023-04-19T03:45:10.325Z,16.30
2023-04-19T03:45:42.409Z,15.30
2023-04-19T03:46:14.583Z,15.90
2023-04-19T03:46:48.255Z,17.90
2023-04-19T03:47:20.308Z,15.20
2023-04-19T03:47:52.229Z,15.30
2023-04-19T03:48:24.025Z,15.00
2023-04-19T03:48:55.935Z,16.60
2023-04-19T03:49:27.886Z,14.50
2023-04-19T03:49:59.868Z,15.60
2023-04-19T03:50:32.013Z,15.20
2023-04-19T03:51:03.972Z,15.50
2023-04-19T03:51:36.100Z,15.80
2023-04-19T03:52:08.147Z,14.80
2023-04-19T03:52:40.424Z,16.10
2023-04-19T03:53:12.632Z,15.80
2023-04-19T03:53:44.815Z,15.30
2023-04-19T03:54:17.196Z,15.40
2023-04-19T03:54:49.534Z,16.00
2023-04-19T03:55:21.584Z,15.70
2023-04-19T03:55:54.087Z,17.50
2023-04-19T03:56:26.093Z,15.40
2023-04-19T03:56:58.353Z,18.60
2023-04-19T03:57:30.812Z,14.10
2023-04-19T03:58:02.660Z,14.80
2023-04-19T03:58:34.823Z,15.50
2023-04-19T03:59:06.776Z,17.10
2023-04-19T03:59:38.822Z,15.80
2023-04-19T04:00:11.792Z,16.60
2023-04-19T04:00:43.588Z,16.10
2023-04-19T04:01:23.690Z,15.90
2023-04-19T04:01:56.053Z,16.10
2023-04-19T04:02:28.333Z,14.70
2023-04-19T04:03:00.658Z,17.20
2023-04-19T04:03:33.390Z,17.20
2023-04-19T04:04:05.816Z,15.50
2023-04-19T04:04:38.211Z,15.70
2023-04-19T04:05:10.663Z,14.70
2023-04-19T04:05:42.965Z,17.00
2023-04-19T04:06:15.769Z,14.40
2023-04-19T04:06:47.671Z,15.90
2023-04-19T04:07:19.625Z,14.90
2023-04-19T04:07:51.697Z,15.10
2023-04-19T04:08:23.854Z,15.90
2023-04-19T04:08:55.781Z,16.70
2023-04-19T04:09:27.863Z,17.40
2023-04-19T04:10:00.143Z,15.40
2023-04-19T04:10:32.149Z,15.30
2023-04-19T04:11:04.529Z,16.20
2023-04-19T04:11:36.642Z,16.90
2023-04-19T04:12:09.208Z,17.60
2023-04-19T04:12:41.376Z,16.70
2023-04-19T04:13:13.349Z,17.40
2023-04-19T04:13:46.209Z,14.90
2023-04-19T04:14:18.112Z,16.10
2023-04-19T04:14:50.088Z,16.30
2023-04-19T04:15:22.093Z,15.90
2023-04-19T04:15:54.039Z,15.50
2023-04-19T04:16:26.151Z,15.80
2023-04-19T04:16:58.193Z,16.50
2023-04-19T04:17:30.298Z,19.00
2023-04-19T04:18:02.698Z,17.40
2023-04-19T04:18:34.940Z,14.60
2023-04-19T04:19:07.219Z,15.80
2023-04-19T04:19:39.289Z,15.10
2023-04-19T04:20:13.155Z,14.90
2023-04-19T04:20:45.341Z,17.00
2023-04-19T04:21:17.305Z,16.30
2023-04-19T04:21:49.514Z,15.60
2023-04-19T04:22:21.782Z,20.80
2023-04-19T04:22:54.061Z,15.80
2023-04-19T04:23:26.182Z,16.40
2023-04-19T04:23:58.250Z,15.20
2023-04-19T04:24:32.553Z,15.90
2023-04-19T04:25:05.344Z,15.50
2023-04-19T04:25:38.736Z,15.40
2023-04-19T04:26:13.416Z,15.90
2023-04-19T04:26:45.256Z,18.20
2023-04-19T04:27:20.808Z,13.80
2023-04-19T04:27:52.893Z,16.20
2023-04-19T04:28:25.409Z,15.90
2023-04-19T04:28:57.260Z,15.80
2023-04-19T04:29:29.212Z,15.50
2023-04-19T04:30:01.575Z,15.70
2023-04-19T04:30:33.933Z,16.70
2023-04-19T04:31:06.077Z,15.40
2023-04-19T04:31:38.052Z,17.50
2023-04-19T04:32:10.673Z,17.00
2023-04-19T04:32:43.003Z,15.10
2023-04-19T04:33:15.007Z,15.30
2023-04-19T04:33:46.974Z,17.40
2023-04-19T04:34:20.073Z,14.70
2023-04-19T04:34:51.988Z,15.00
2023-04-19T04:35:23.870Z,15.60
2023-04-19T04:35:57.518Z,14.50
2023-04-19T04:36:30.716Z,14.90
2023-04-19T04:37:03.243Z,16.00
2023-04-19T04:37:35.423Z,14.40
2023-04-19T04:38:17.493Z,15.20
2023-04-19T04:38:53.757Z,14.60
2023-04-19T04:39:26.315Z,16.50
2023-04-19T04:39:58.286Z,15.30
2023-04-19T04:40:30.320Z,15.80
2023-04-19T04:41:02.679Z,15.90
2023-04-19T04:41:35.575Z,14.00
2023-04-19T04:42:08.328Z,15.90
2023-04-19T04:42:40.469Z,14.70
2023-04-19T04:43:13.047Z,16.00
2023-04-19T04:43:53.840Z,16.00
2023-04-19T04:44:31.283Z,16.10
2023-04-19T04:45:04.468Z,14.60
2023-04-19T04:45:37.473Z,14.60
2023-04-19T04:46:09.416Z,15.40
2023-04-19T04:46:41.339Z,15.80
2023-04-19T04:47:13.811Z,15.70
2023-04-19T04:47:46.078Z,14.50
2023-04-19T04:48:18.339Z,14.40
2023-04-19T04:48:52.101Z,14.80
2023-04-19T04:49:24.065Z,14.20
2023-04-19T04:49:56.192Z,16.00
2023-04-19T04:50:28.459Z,15.20
2023-04-19T04:51:00.720Z,17.20
2023-04-19T04:51:32.866Z,16.10
2023-04-19T04:52:06.045Z,13.90
2023-04-19T04:52:38.113Z,14.20
2023-04-19T04:53:13.126Z,15.00
2023-04-19T04:53:46.778Z,14.30
2023-04-19T04:54:18.617Z,14.30
2023-04-19T04:54:51.220Z,16.80
2023-04-19T04:55:23.789Z,14.10
2023-04-19T04:55:55.839Z,15.40
2023-04-19T04:56:28.134Z,14.30
2023-04-19T04:57:00.882Z,15.00
2023-04-19T04:57:32.916Z,13.40
2023-04-19T04:58:05.487Z,13.20
2023-04-19T04:58:37.849Z,14.40
2023-04-19T04:59:10.108Z,15.90
2023-04-19T04:59:42.140Z,13.80
2023-04-19T05:00:15.182Z,13.50
2023-04-19T05:00:48.792Z,14.40
2023-04-19T05:01:22.545Z,13.70
2023-04-19T05:01:54.720Z,14.50
2023-04-19T05:02:27.120Z,14.10
2023-04-19T05:02:59.829Z,14.70
2023-04-19T05:03:32.169Z,14.40
2023-04-19T05:04:04.882Z,13.90
2023-04-19T05:04:37.179Z,14.30
2023-04-19T05:05:10.956Z,14.30
2023-04-19T05:05:44.972Z,15.90
2023-04-19T05:06:17.613Z,14.00
2023-04-19T05:06:50.113Z,13.60
2023-04-19T05:07:22.454Z,15.90
2023-04-19T05:07:55.007Z,13.90
2023-04-19T05:08:27.899Z,13.50
2023-04-19T05:09:00.015Z,14.60
2023-04-19T05:09:32.307Z,15.00
2023-04-19T05:10:05.582Z,13.80
2023-04-19T05:10:38.222Z,13.10
2023-04-19T05:11:10.496Z,15.50
2023-04-19T05:11:42.739Z,13.30
2023-04-19T05:12:15.312Z,13.80
2023-04-19T05:12:47.360Z,13.90
2023-04-19T05:13:19.406Z,13.60
2023-04-19T05:13:51.461Z,14.30
2023-04-19T05:14:23.529Z,13.90
2023-04-19T05:14:55.584Z,14.00
2023-04-19T05:15:27.816Z,13.70
2023-04-19T05:16:00.314Z,13.50
2023-04-19T05:16:33.019Z,13.00
2023-04-19T05:17:07.054Z,13.30
2023-04-19T05:17:39.135Z,14.30
2023-04-19T05:18:11.041Z,13.10
2023-04-19T05:18:43.109Z,15.50
2023-04-19T05:19:15.056Z,14.30
2023-04-19T05:19:47.094Z,13.60
2023-04-19T05:20:19.878Z,13.70
2023-04-19T05:20:52.221Z,15.10
2023-04-19T05:21:24.305Z,13.70
2023-04-19T05:21:56.293Z,13.90
2023-04-19T05:22:28.475Z,12.70
2023-04-19T05:23:02.905Z,12.50
2023-04-19T05:23:35.174Z,14.60
2023-04-19T05:24:09.555Z,15.70
2023-04-19T05:24:42.392Z,14.60
2023-04-19T05:25:14.577Z,13.50
2023-04-19T05:25:47.398Z,16.90
2023-04-19T05:26:19.445Z,15.00
2023-04-19T05:26:51.348Z,15.00
2023-04-19T05:27:23.272Z,14.10
2023-04-19T05:27:55.737Z,14.00
2023-04-19T05:28:27.940Z,13.80
2023-04-19T05:28:59.829Z,13.30
2023-04-19T05:29:32.234Z,14.10
2023-04-19T05:30:06.115Z,17.70
2023-04-19T05:30:38.175Z,13.80
2023-04-19T05:31:10.791Z,14.80
2023-04-19T05:31:42.943Z,13.50
2023-04-19T05:32:15.048Z,13.70
2023-04-19T05:32:47.175Z,13.50
2023-04-19T05:33:19.290Z,14.00
2023-04-19T05:33:51.096Z,17.00
2023-04-19T05:34:23.293Z,13.80
2023-04-19T05:34:55.715Z,13.60
2023-04-19T05:35:27.583Z,14.90
2023-04-19T05:35:59.433Z,13.90
2023-04-19T05:36:31.966Z,13.90
2023-04-19T05:37:05.477Z,12.80
2023-04-19T05:37:38.625Z,14.80
2023-04-19T05:38:10.794Z,13.50
2023-04-19T05:38:42.526Z,13.90
2023-04-19T05:39:15.099Z,13.20
2023-04-19T05:39:47.035Z,13.70
2023-04-19T05:40:19.208Z,14.20
2023-04-19T05:40:51.247Z,14.00
2023-04-19T05:41:23.441Z,15.30
2023-04-19T05:41:55.377Z,13.60
2023-04-19T05:42:27.311Z,13.70
2023-04-19T05:42:59.354Z,15.70
2023-04-19T05:43:31.529Z,13.60
2023-04-19T05:44:03.878Z,13.70
2023-04-19T05:44:35.908Z,15.40
2023-04-19T05:45:08.480Z,12.90
2023-04-19T05:45:40.734Z,14.40
2023-04-19T05:46:12.711Z,15.10
2023-04-19T05:46:44.880Z,13.70
2023-04-19T05:47:17.330Z,14.30
2023-04-19T05:47:49.385Z,13.40
2023-04-19T05:48:21.322Z,13.80
2023-04-19T05:48:53.377Z,13.60
2023-04-19T05:49:25.328Z,14.90
2023-04-19T05:49:57.458Z,13.40
2023-04-19T05:50:29.527Z,13.40
2023-04-19T05:51:01.569Z,15.10
2023-04-19T05:51:33.521Z,14.30
2023-04-19T05:52:05.669Z,14.00
2023-04-19T05:52:37.716Z,14.10
2023-04-19T05:53:09.781Z,16.10
2023-04-19T05:53:41.922Z,13.60
2023-04-19T05:54:14.504Z,13.70
2023-04-19T05:54:46.746Z,14.10
2023-04-19T05:55:19.118Z,13.90
2023-04-19T05:55:51.779Z,12.90
2023-04-19T05:56:23.514Z,15.40
2023-04-19T05:56:55.915Z,13.10
2023-04-19T05:57:27.874Z,14.10
2023-04-19T05:58:00.480Z,13.90
2023-04-19T05:58:32.367Z,16.30
2023-04-19T05:59:04.378Z,12.60
2023-04-19T05:59:36.330Z,13.70
2023-04-19T06:00:11.639Z,12.70
2023-04-19T06:00:43.610Z,14.90
2023-04-19T06:01:15.905Z,13.30
2023-04-19T06:01:47.756Z,13.70
2023-04-19T06:02:20.223Z,15.30
2023-04-19T06:02:52.478Z,13.70
2023-04-19T06:03:26.796Z,15.90
2023-04-19T06:04:00.914Z,12.80
2023-04-19T06:04:33.389Z,14.90
2023-04-19T06:05:09.983Z,13.50
2023-04-19T06:05:42.850Z,16.10
2023-04-19T06:06:14.944Z,13.40
2023-04-19T06:06:47.149Z,13.90
2023-04-19T06:07:31.163Z,13.40
2023-04-19T06:08:06.771Z,12.90
2023-04-19T06:08:38.572Z,13.20
2023-04-19T06:09:11.926Z,14.70
2023-04-19T06:09:43.782Z,12.40
2023-04-19T06:10:16.141Z,16.60
2023-04-19T06:10:54.618Z,15.10
2023-04-19T06:12:15.228Z,13.80
2023-04-19T06:12:47.696Z,16.00
2023-04-19T06:13:19.847Z,13.40
2023-04-19T06:13:51.839Z,16.30
2023-04-19T06:14:24.049Z,15.00
2023-04-19T06:14:56.355Z,13.40
2023-04-19T06:15:30.513Z,14.40
2023-04-19T06:16:03.331Z,14.00
2023-04-19T06:16:35.428Z,15.30
2023-04-19T06:17:07.374Z,12.70
2023-04-19T06:17:39.172Z,13.30
2023-04-19T06:18:19.124Z,14.20
2023-04-19T06:18:52.131Z,14.50
2023-04-19T06:19:24.086Z,13.10
2023-04-19T06:19:56.449Z,14.50
2023-04-19T06:20:28.285Z,13.60
2023-04-19T06:21:00.246Z,14.60
2023-04-19T06:21:32.521Z,13.50
2023-04-19T06:22:04.698Z,14.30
2023-04-19T06:22:45.171Z,15.70
2023-04-19T06:23:17.972Z,15.80
2023-04-19T06:23:50.155Z,13.20
2023-04-19T06:24:22.026Z,17.80
2023-04-19T06:24:53.927Z,13.20
2023-04-19T06:25:25.862Z,13.90
2023-04-19T06:25:57.613Z,14.10
2023-04-19T06:26:29.558Z,14.40
2023-04-19T06:27:01.967Z,14.60
2023-04-19T06:27:34.121Z,14.70
2023-04-19T06:28:06.360Z,15.40
2023-04-19T06:28:38.394Z,14.60
2023-04-19T06:29:10.436Z,14.60
2023-04-19T06:29:42.639Z,13.70
2023-04-19T06:30:14.648Z,13.90
2023-04-19T06:30:46.707Z,13.40
2023-04-19T06:31:19.456Z,14.00
2023-04-19T06:31:51.550Z,13.10
2023-04-19T06:32:25.543Z,13.90
2023-04-19T06:32:57.580Z,13.60
2023-04-19T06:33:29.713Z,13.20
2023-04-19T06:34:01.881Z,12.30
2023-04-19T06:34:33.837Z,14.80
2023-04-19T06:35:06.590Z,13.00
2023-04-19T06:35:38.439Z,13.70
2023-04-19T06:36:10.488Z,13.10
2023-04-19T06:36:42.448Z,12.50
2023-04-19T06:37:14.810Z,14.60
2023-04-19T06:37:46.862Z,13.30
2023-04-19T06:38:18.844Z,14.30
2023-04-19T06:38:50.854Z,13.40
2023-04-19T06:39:22.706Z,13.10
2023-04-19T06:39:55.182Z,13.50
2023-04-19T06:40:28.967Z,13.30
2023-04-19T06:41:01.017Z,15.30
2023-04-19T06:41:33.153Z,14.70
2023-04-19T06:42:05.230Z,16.70
2023-04-19T06:42:37.875Z,13.50
2023-04-19T06:43:09.643Z,13.50
2023-04-19T06:43:42.651Z,13.40
2023-04-19T06:44:15.278Z,16.10
2023-04-19T06:44:47.420Z,13.90
2023-04-19T06:45:19.471Z,14.10
2023-04-19T06:46:01.589Z,12.40
2023-04-19T06:46:33.799Z,14.30
2023-04-19T06:47:05.944Z,12.70
2023-04-19T06:47:37.881Z,13.50
2023-04-19T06:48:10.117Z,13.90
2023-04-19T06:48:42.113Z,14.50
2023-04-19T06:49:14.191Z,13.00
2023-04-19T06:49:46.423Z,14.80
2023-04-19T06:50:18.374Z,12.20
2023-04-19T06:50:50.340Z,14.50
2023-04-19T06:51:22.382Z,14.00
2023-04-19T06:51:54.429Z,13.10
2023-04-19T06:52:26.448Z,14.70
2023-04-19T06:52:58.256Z,13.40
2023-04-19T06:53:30.171Z,13.40
2023-04-19T06:54:02.065Z,13.60
2023-04-19T06:54:33.865Z,13.40
2023-04-19T06:55:07.057Z,13.60
2023-04-19T06:55:38.836Z,14.30
2023-04-19T06:56:12.452Z,16.40
2023-04-19T06:56:46.649Z,12.90
2023-04-19T06:57:19.043Z,13.40
2023-04-19T06:57:51.087Z,13.60
2023-04-19T06:58:23.050Z,13.60
2023-04-19T06:58:54.890Z,13.50
2023-04-19T06:59:28.071Z,12.80
2023-04-19T07:00:00.325Z,14.60
2023-04-19T07:00:32.307Z,12.20
2023-04-19T07:01:04.950Z,13.10
2023-04-19T07:01:37.575Z,12.80
2023-04-19T07:02:10.260Z,13.30
2023-04-19T07:02:42.495Z,12.40
2023-04-19T07:03:15.025Z,12.50
2023-04-19T07:03:47.365Z,16.50
2023-04-19T07:04:19.585Z,13.20
2023-04-19T07:04:51.901Z,13.40
2023-04-19T07:05:23.813Z,12.70
2023-04-19T07:05:58.744Z,12.90
2023-04-19T07:06:30.771Z,14.00
2023-04-19T07:07:06.002Z,12.30
2023-04-19T07:07:38.344Z,13.20
2023-04-19T07:08:12.676Z,12.70
2023-04-19T07:09:20.596Z,13.00
2023-04-19T07:09:52.548Z,12.90
2023-04-19T07:10:24.384Z,12.40
2023-04-19T07:10:56.421Z,13.80
2023-04-19T07:11:28.365Z,12.80
2023-04-19T07:12:01.618Z,11.70
2023-04-19T07:12:33.479Z,12.30
2023-04-19T07:13:05.631Z,14.40
2023-04-19T07:13:37.694Z,11.50
2023-04-19T07:14:09.542Z,14.10
2023-04-19T07:14:41.482Z,12.70
2023-04-19T07:15:13.394Z,13.60
2023-04-19T07:15:45.497Z,12.50
2023-04-19T07:16:17.575Z,14.20
2023-04-19T07:16:50.760Z,13.00
2023-04-19T07:17:23.658Z,12.20
2023-04-19T07:17:55.658Z,13.30
2023-04-19T07:18:27.500Z,12.30
2023-04-19T07:18:59.529Z,12.00
2023-04-19T07:19:31.688Z,13.50
2023-04-19T07:20:06.007Z,11.90
2023-04-19T07:20:37.935Z,12.20
2023-04-19T07:21:10.840Z,12.60
2023-04-19T07:21:42.669Z,12.90
2023-04-19T07:22:15.310Z,14.40
2023-04-19T07:22:47.372Z,11.20
2023-04-19T07:23:19.336Z,11.50
2023-04-19T07:23:51.388Z,11.90
2023-04-19T07:24:23.364Z,12.00
2023-04-19T07:24:55.484Z,12.10
2023-04-19T07:25:27.500Z,13.10
2023-04-19T07:25:59.503Z,14.20
2023-04-19T07:26:31.549Z,13.00
2023-04-19T07:27:03.804Z,14.20
2023-04-19T07:27:35.755Z,13.40
2023-04-19T07:28:07.995Z,12.10
2023-04-19T07:28:40.277Z,11.40
2023-04-19T07:29:14.889Z,11.60
2023-04-19T07:29:46.877Z,11.30
2023-04-19T07:30:19.195Z,13.00
2023-04-19T07:30:51.267Z,12.30
2023-04-19T07:31:26.854Z,10.60
2023-04-19T07:32:00.963Z,12.00
2023-04-19T07:32:32.883Z,10.90
2023-04-19T07:33:07.871Z,13.00
2023-04-19T07:33:39.990Z,14.30
2023-04-19T07:34:12.050Z,12.40
2023-04-19T07:34:45.511Z,15.30
2023-04-19T07:35:19.001Z,12.50
2023-04-19T07:35:51.488Z,11.80
2023-04-19T07:36:23.520Z,11.00
2023-04-19T07:36:55.478Z,12.60
2023-04-19T07:37:28.166Z,12.30
2023-04-19T07:38:00.029Z,12.70
2023-04-19T07:38:32.031Z,11.60
2023-04-19T07:39:04.490Z,11.60
2023-04-19T07:39:36.658Z,11.60
2023-04-19T07:40:09.291Z,11.70
2023-04-19T07:40:41.255Z,11.10
2023-04-19T07:41:13.232Z,11.50
2023-04-19T07:41:46.206Z,12.20
2023-04-19T07:42:18.370Z,11.30
2023-04-19T07:42:50.896Z,11.80
2023-04-19T07:43:22.866Z,10.40
2023-04-19T07:43:54.922Z,11.60
2023-04-19T07:44:27.067Z,12.00
2023-04-19T07:44:59.691Z,11.30
2023-04-19T07:45:31.721Z,12.60
2023-04-19T07:46:15.632Z,11.30
2023-04-19T07:46:47.579Z,11.80
2023-04-19T07:47:19.625Z,12.40
2023-04-19T07:47:51.646Z,11.70
2023-04-19T07:48:23.821Z,10.90
2023-04-19T07:48:55.761Z,10.60
2023-04-19T07:49:28.914Z,10.80
2023-04-19T07:50:01.004Z,10.80
2023-04-19T07:50:32.848Z,10.20
2023-04-19T07:51:09.964Z,13.10
2023-04-19T07:51:41.679Z,11.60
2023-04-19T07:52:13.747Z,11.80
2023-04-19T07:52:45.755Z,10.90
2023-04-19T07:53:18.041Z,11.30
2023-04-19T07:53:50.159Z,11.50
2023-04-19T07:54:22.111Z,10.00
2023-04-19T07:54:53.916Z,10.90
2023-04-19T07:55:25.829Z,10.50
2023-04-19T07:55:57.676Z,11.60
2023-04-19T07:56:29.706Z,13.10
2023-04-19T07:57:01.868Z,11.80
2023-04-19T07:57:35.443Z,12.40
2023-04-19T07:58:07.288Z,12.60
2023-04-19T07:58:40.878Z,11.20
2023-04-19T07:59:12.737Z,12.30
2023-04-19T07:59:44.592Z,11.10
2023-04-19T08:00:18.239Z,12.30
2023-04-19T08:00:50.102Z,11.50
2023-04-19T08:01:22.265Z,11.10
2023-04-19T08:01:54.483Z,11.50
2023-04-19T08:02:27.531Z,13.10
2023-04-19T08:03:00.229Z,10.60
2023-04-19T08:03:34.035Z,11.40
2023-04-19T08:04:06.571Z,11.10
2023-04-19T08:04:39.479Z,11.40
2023-04-19T08:05:13.608Z,13.10
2023-04-19T08:05:45.770Z,10.70
2023-04-19T08:06:17.817Z,12.80
2023-04-19T08:06:50.162Z,12.70
2023-04-19T08:07:23.240Z,13.20
2023-04-19T08:07:56.403Z,15.10
2023-04-19T08:08:28.371Z,9.60
2023-04-19T08:09:00.368Z,10.90
2023-04-19T08:09:34.291Z,10.40
2023-04-19T08:10:07.381Z,10.60
2023-04-19T08:10:39.246Z,12.60
2023-04-19T08:11:11.290Z,11.80
2023-04-19T08:11:43.327Z,13.40
2023-04-19T08:12:26.872Z,11.30
2023-04-19T08:13:06.553Z,11.90
2023-04-19T08:13:40.395Z,12.90
2023-04-19T08:14:22.269Z,12.10
2023-04-19T08:15:17.994Z,11.00
2023-04-19T08:17:11.445Z,12.10
2023-04-19T08:17:30.729Z,10.10
2023-04-19T08:18:07.246Z,10.80
2023-04-19T08:18:39.384Z,10.80
2023-04-19T08:19:11.435Z,11.70
2023-04-19T08:19:43.283Z,10.80
2023-04-19T08:20:15.778Z,11.00
2023-04-19T08:20:48.614Z,13.20
2023-04-19T08:21:24.102Z,10.20
2023-04-19T08:22:00.726Z,9.50
2023-04-19T08:22:32.766Z,9.10
2023-04-19T08:23:18.135Z,9.50
2023-04-19T08:23:54.459Z,10.30
2023-04-19T08:24:26.838Z,10.50
2023-04-19T08:24:58.680Z,12.20
2023-04-19T08:25:30.593Z,11.30
2023-04-19T08:26:03.210Z,11.60
2023-04-19T08:26:35.041Z,10.20
2023-04-19T08:27:07.245Z,11.60
2023-04-19T08:27:39.315Z,13.10
2023-04-19T08:28:12.247Z,10.80
2023-04-19T08:28:44.082Z,12.80
2023-04-19T08:29:16.399Z,12.50
2023-04-19T08:29:48.701Z,10.60
2023-04-19T08:30:21.065Z,11.20
2023-04-19T08:30:54.639Z,10.90
2023-04-19T08:31:26.715Z,9.70
2023-04-19T08:31:58.904Z,13.40
2023-04-19T08:32:31.346Z,11.40
2023-04-19T08:33:03.618Z,11.60
2023-04-19T08:33:35.844Z,11.70
2023-04-19T08:34:07.898Z,11.60
2023-04-19T08:34:40.255Z,11.20
2023-04-19T08:35:13.615Z,14.00
2023-04-19T08:35:45.871Z,11.60
2023-04-19T08:36:22.355Z,11.70
2023-04-19T08:37:03.824Z,13.00
2023-04-19T08:37:36.974Z,10.90
2023-04-19T08:38:09.404Z,11.50
2023-04-19T08:38:44.504Z,12.70
2023-04-19T08:39:31.884Z,14.30
2023-04-19T08:40:06.287Z,10.70
2023-04-19T08:40:45.195Z,10.60
2023-04-19T08:41:19.382Z,10.50
2023-04-19T08:42:02.518Z,10.60
2023-04-19T08:42:37.457Z,11.00
2023-04-19T08:43:10.082Z,12.90
2023-04-19T08:43:43.567Z,10.80
2023-04-19T08:44:22.539Z,10.30
2023-04-19T08:45:41.213Z,13.50
2023-04-19T08:46:13.201Z,13.10
2023-04-19T08:46:46.151Z,10.60
2023-04-19T08:47:30.103Z,12.00
2023-04-19T08:48:04.443Z,12.00
2023-04-19T08:48:37.552Z,12.00
2023-04-19T08:49:11.600Z,12.60
2023-04-19T08:49:47.538Z,10.40
2023-04-19T08:50:32.605Z,12.60
2023-04-19T08:51:08.658Z,12.30
2023-04-19T08:51:40.912Z,10.90
2023-04-19T08:52:14.038Z,11.80
2023-04-19T08:52:54.880Z,13.20
2023-04-19T08:53:30.124Z,12.10
2023-04-19T08:54:05.149Z,13.40
2023-04-19T08:54:37.811Z,14.90
2023-04-19T08:55:10.457Z,14.10
2023-04-19T08:55:59.131Z,10.20
2023-04-19T08:56:36.054Z,10.10
2023-04-19T08:57:09.162Z,10.60
2023-04-19T08:57:41.343Z,10.80
2023-04-19T08:58:26.283Z,9.70
2023-04-19T08:59:45.534Z,10.70
2023-04-19T09:00:18.822Z,10.20
2023-04-19T09:00:50.777Z,10.60
2023-04-19T09:02:01.703Z,9.30
2023-04-19T09:02:51.368Z,11.60
2023-04-19T09:03:23.683Z,11.40
2023-04-19T09:04:07.385Z,10.30
2023-04-19T09:04:48.514Z,10.50
2023-04-19T09:05:21.223Z,12.30
2023-04-19T09:05:54.729Z,9.90
2023-04-19T09:06:27.303Z,10.20
2023-04-19T09:06:59.736Z,11.50
2023-04-19T09:07:32.281Z,10.30
2023-04-19T09:08:24.783Z,13.50
2023-04-19T09:10:09.000Z,9.80
2023-04-19T09:10:53.610Z,9.70
2023-04-19T09:11:51.853Z,11.60
2023-04-19T09:12:24.221Z,10.00
2023-04-19T09:13:04.177Z,11.30
2023-04-19T09:13:40.197Z,10.90
2023-04-19T09:14:14.539Z,9.70
2023-04-19T09:15:00.458Z,11.00
2023-04-19T09:15:41.645Z,12.80
2023-04-19T09:16:24.746Z,11.60
2023-04-19T09:17:16.507Z,13.40
2023-04-19T09:18:04.443Z,10.80
2023-04-19T09:19:22.485Z,11.10
2023-04-19T09:19:50.321Z,10.50
2023-04-19T09:20:43.530Z,9.50
2023-04-19T09:21:28.081Z,10.70
2023-04-19T09:22:13.031Z,10.20
2023-04-19T09:23:03.593Z,11.40
2023-04-19T09:23:47.905Z,10.20
2023-04-19T09:24:19.806Z,11.40
2023-04-19T09:26:19.442Z,10.30
2023-04-19T09:26:55.547Z,11.10
2023-04-19T09:27:31.101Z,10.60
2023-04-19T09:28:13.075Z,12.00
2023-04-19T09:29:01.560Z,10.50
2023-04-19T09:29:33.365Z,10.60
2023-04-19T09:30:07.235Z,11.00
2023-04-19T09:30:54.807Z,10.40
2023-04-19T09:31:50.993Z,10.20
2023-04-19T09:32:24.765Z,10.80
2023-04-19T09:32:56.948Z,12.80
2023-04-19T09:33:39.053Z,11.50
2023-04-19T09:34:16.323Z,10.00
2023-04-19T09:34:56.746Z,11.90
2023-04-19T09:35:49.271Z,10.60
2023-04-19T09:36:31.863Z,10.60
2023-04-19T09:37:25.009Z,10.90
2023-04-19T09:38:06.992Z,10.30
2023-04-19T09:38:49.936Z,10.80
2023-04-19T09:39:32.531Z,10.90
2023-04-19T09:40:24.270Z,9.70
2023-04-19T09:41:07.535Z,10.60
2023-04-19T09:41:53.066Z,10.10